Time;durP1;ratioP1;P1;durP2;ratioP2;P2;SDS_P1;SDS_P2;PMS_P1;PMS_P2;Temp;Humidity;BMP_temperature;BMP_pressure;BME280_temperature;BME280_humidity;BME280_pressure;Samples;Min_cycle;Max_cycle;Signal;HPM_P1;HPM_P2
2021/12/06 00:02:21;;;;;;;62.25;22.08;;;;;;;;;;5012797;28;20030;-65
2021/12/06 00:04:46;;;;;;;67.78;23.15;;;;;;;;;;5015545;28;20026;-63
2021/12/06 00:07:18;;;;;;;41.25;16.25;;;;;;;;;;5000489;28;20033;-64
2021/12/06 00:09:44;;;;;;;44.85;17.83;;;;;;;;;;5008519;28;20369;-64
2021/12/06 00:12:10;;;;;;;40.63;18.02;;;;;;;;;;5006870;28;20041;-56
2021/12/06 00:14:38;;;;;;;42.25;17.92;;;;;;;;;;5007997;28;20044;-63
2021/12/06 00:17:07;;;;;;;44.78;20.00;;;;;;;;;;5012205;28;20045;-65
2021/12/06 00:19:33;;;;;;;41.80;18.00;;;;;;;;;;5006576;28;20041;-65
2021/12/06 00:22:00;;;;;;;33.40;16.77;;;;;;;;;;5006878;28;20490;-64
2021/12/06 00:24:26;;;;;;;36.25;17.77;;;;;;;;;;5012080;28;20107;-65
2021/12/06 00:26:52;;;;;;;32.15;15.40;;;;;;;;;;5010441;28;20033;-65
2021/12/06 00:29:18;;;;;;;28.40;15.30;;;;;;;;;;5006959;28;20564;-56
2021/12/06 00:31:44;;;;;;;33.15;15.63;;;;;;;;;;5010645;28;20429;-65
2021/12/06 00:34:14;;;;;;;34.35;16.73;;;;;;;;;;5015161;28;20026;-65
2021/12/06 00:36:44;;;;;;;42.53;16.25;;;;;;;;;;5004888;28;20038;-65
2021/12/06 00:39:12;;;;;;;31.58;15.32;;;;;;;;;;5013536;28;20037;-65
2021/12/06 00:41:39;;;;;;;32.70;16.55;;;;;;;;;;5008709;28;20037;-64
2021/12/06 00:44:07;;;;;;;31.67;15.18;;;;;;;;;;5014768;28;20034;-63
2021/12/06 00:46:33;;;;;;;35.35;16.40;;;;;;;;;;5014146;28;20473;-63
2021/12/06 00:48:59;;;;;;;32.58;16.02;;;;;;;;;;5013999;28;20464;-64
2021/12/06 00:51:25;;;;;;;33.60;15.90;;;;;;;;;;4993266;28;20056;-64
2021/12/06 00:53:50;;;;;;;31.50;15.40;;;;;;;;;;5010470;28;20040;-64
2021/12/06 00:56:16;;;;;;;31.95;16.40;;;;;;;;;;4990315;28;20080;-63
2021/12/06 00:58:43;;;;;;;32.10;15.15;;;;;;;;;;5005175;28;20018;-63
2021/12/06 01:01:09;;;;;;;35.92;16.65;;;;;;;;;;4996320;28;20105;-65
2021/12/06 01:03:36;;;;;;;32.78;14.55;;;;;;;;;;5003475;28;20105;-59
2021/12/06 01:06:04;;;;;;;33.10;17.35;;;;;;;;;;5004759;28;20495;-61
2021/12/06 01:08:30;;;;;;;37.25;16.85;;;;;;;;;;5013100;28;20030;-61
2021/12/06 01:10:56;;;;;;;35.10;16.65;;;;;;;;;;5014395;28;20053;-59
2021/12/06 01:13:23;;;;;;;34.67;17.08;;;;;;;;;;5014536;28;20133;-61
2021/12/06 01:15:49;;;;;;;31.60;15.35;;;;;;;;;;5014666;28;20072;-60
2021/12/06 01:18:17;;;;;;;37.38;17.90;;;;;;;;;;5010757;28;20022;-61
2021/12/06 01:20:55;;;;;;;38.03;17.73;;;;;;;;;;5010291;28;20109;-62
2021/12/06 01:23:26;;;;;;;37.45;18.02;;;;;;;;;;5014448;28;20033;-59
2021/12/06 01:26:11;;;;;;;35.67;17.95;;;;;;;;;;5014566;28;20026;-59
2021/12/06 01:39:13;;;;;;;41.97;19.75;;;;;;;;;;5010488;28;20040;-56
2021/12/06 01:41:56;;;;;;;38.83;17.30;;;;;;;;;;5011570;28;20089;-59
2021/12/06 01:44:33;;;;;;;38.47;19.33;;;;;;;;;;5010499;28;20036;-63
2021/12/06 01:47:04;;;;;;;38.35;17.20;;;;;;;;;;5013684;28;20469;-64
2021/12/06 01:49:31;;;;;;;;;;;;;;;;;;5010106;28;20054;-62
2021/12/06 01:51:58;;;;;;;27.80;14.95;;;;;;;;;;5013869;28;20280;-65
2021/12/06 01:54:24;;;;;;;40.28;18.17;;;;;;;;;;5013619;28;20037;-64
2021/12/06 01:56:51;;;;;;;35.13;18.58;;;;;;;;;;5014128;28;20025;-63
2021/12/06 01:59:17;;;;;;;40.45;19.38;;;;;;;;;;5013947;28;20022;-64
2021/12/06 02:01:43;;;;;;;36.40;18.50;;;;;;;;;;5013671;28;20065;-65
2021/12/06 02:04:09;;;;;;;36.95;17.65;;;;;;;;;;5014142;28;20053;-67
2021/12/06 02:06:37;;;;;;;32.63;17.05;;;;;;;;;;5009072;28;20037;-66
2021/12/06 02:09:05;;;;;;;41.55;18.60;;;;;;;;;;5013959;28;20018;-63
2021/12/06 02:11:34;;;;;;;42.03;17.98;;;;;;;;;;5013788;28;20041;-61
2021/12/06 02:16:58;;;;;;;30.50;15.32;;;;;;;;;;5013009;28;20026;-62
2021/12/06 02:19:30;;;;;;;35.78;17.52;;;;;;;;;;5013672;28;20449;-63
2021/12/06 02:21:55;;;;;;;31.60;15.95;;;;;;;;;;5010898;28;20370;-61
2021/12/06 02:24:21;;;;;;;37.45;16.38;;;;;;;;;;4999514;28;20102;-63
2021/12/06 02:26:47;;;;;;;32.65;15.30;;;;;;;;;;4994117;28;20061;-60
2021/12/06 02:29:13;;;;;;;34.80;16.20;;;;;;;;;;4993816;28;20033;-64
2021/12/06 02:31:39;;;;;;;35.90;15.85;;;;;;;;;;4983329;28;20033;-64
2021/12/06 02:34:05;;;;;;;32.13;15.30;;;;;;;;;;5000673;28;20034;-64
2021/12/06 02:36:31;;;;;;;31.25;13.85;;;;;;;;;;4989100;28;20474;-63
2021/12/06 02:38:58;;;;;;;28.83;15.35;;;;;;;;;;4976519;28;20497;-65
2021/12/06 02:41:24;;;;;;;32.30;16.02;;;;;;;;;;5012927;28;20412;-63
2021/12/06 02:43:52;;;;;;;31.27;14.65;;;;;;;;;;5013207;28;20033;-65
2021/12/06 02:46:20;;;;;;;32.78;15.43;;;;;;;;;;5008311;28;20022;-63
2021/12/06 02:48:46;;;;;;;29.00;15.75;;;;;;;;;;4993857;28;20097;-63
2021/12/06 02:51:13;;;;;;;32.90;16.83;;;;;;;;;;4993605;28;20030;-64
2021/12/06 02:53:39;;;;;;;32.75;15.88;;;;;;;;;;5001755;28;20041;-64
2021/12/06 02:56:17;;;;;;;27.92;14.15;;;;;;;;;;5013008;28;20022;-63
2021/12/06 02:58:56;;;;;;;25.98;12.98;;;;;;;;;;5001083;28;20453;-62
2021/12/06 03:01:40;;;;;;;28.15;13.57;;;;;;;;;;5012960;28;20541;-62
2021/12/06 03:04:07;;;;;;;27.75;14.30;;;;;;;;;;5013049;28;20036;-61
2021/12/06 03:06:33;;;;;;;26.90;14.40;;;;;;;;;;5012772;28;20049;-60
2021/12/06 03:09:08;;;;;;;26.52;13.25;;;;;;;;;;5012960;28;20152;-60
2021/12/06 03:11:46;;;;;;;26.15;13.35;;;;;;;;;;5013103;28;20038;-61
2021/12/06 03:14:26;;;;;;;24.58;12.73;;;;;;;;;;5010849;28;20034;-60
2021/12/06 03:16:54;;;;;;;30.10;14.27;;;;;;;;;;4993369;28;20026;-59
2021/12/06 03:19:20;;;;;;;25.80;13.10;;;;;;;;;;4993270;28;20030;-59
2021/12/06 03:21:45;;;;;;;25.90;14.13;;;;;;;;;;4993304;28;20018;-60
2021/12/06 03:24:11;;;;;;;27.05;13.65;;;;;;;;;;4993314;28;20026;-64
2021/12/06 03:26:38;;;;;;;25.63;13.45;;;;;;;;;;4993124;28;20508;-59
2021/12/06 03:29:05;;;;;;;25.42;13.23;;;;;;;;;;4992736;28;20015;-60
2021/12/06 03:31:31;;;;;;;27.73;13.98;;;;;;;;;;5003002;28;20477;-57
2021/12/06 03:33:57;;;;;;;25.65;12.70;;;;;;;;;;5012524;28;20040;-61
2021/12/06 03:36:26;;;;;;;23.80;12.45;;;;;;;;;;5012609;28;20022;-56
2021/12/06 03:38:52;;;;;;;26.83;13.55;;;;;;;;;;5012717;28;20021;-60
2021/12/06 03:41:20;;;;;;;24.13;13.15;;;;;;;;;;5009733;28;20436;-63
2021/12/06 03:43:46;;;;;;;24.63;12.40;;;;;;;;;;4994501;28;20026;-57
2021/12/06 03:46:14;;;;;;;25.00;12.40;;;;;;;;;;4992950;28;20031;-61
2021/12/06 03:48:40;;;;;;;22.70;11.93;;;;;;;;;;5006430;28;20073;-63
2021/12/06 03:51:06;;;;;;;23.85;11.90;;;;;;;;;;4993007;28;20093;-63
2021/12/06 03:53:32;;;;;;;25.30;12.13;;;;;;;;;;4997091;28;20038;-64
2021/12/06 03:55:58;;;;;;;24.05;12.18;;;;;;;;;;5012490;28;20029;-63
2021/12/06 03:58:24;;;;;;;22.60;11.75;;;;;;;;;;5007802;28;20069;-65
2021/12/06 04:00:50;;;;;;;27.38;13.13;;;;;;;;;;4992886;28;20026;-63
2021/12/06 04:03:16;;;;;;;21.20;10.25;;;;;;;;;;4992909;28;20343;-64
2021/12/06 04:05:42;;;;;;;22.23;11.07;;;;;;;;;;4992870;28;20026;-64
2021/12/06 04:08:07;;;;;;;19.88;10.38;;;;;;;;;;4992687;28;20556;-65
2021/12/06 04:10:33;;;;;;;18.95;10.65;;;;;;;;;;4998363;28;20381;-65
2021/12/06 04:12:59;;;;;;;19.75;10.15;;;;;;;;;;4992437;28;20462;-64
2021/12/06 04:15:29;;;;;;;17.75;9.57;;;;;;;;;;4992749;28;20022;-64
2021/12/06 04:17:56;;;;;;;19.70;10.30;;;;;;;;;;4996358;28;20430;-62
2021/12/06 04:20:22;;;;;;;20.25;10.98;;;;;;;;;;5012140;28;20409;-62
2021/12/06 04:22:47;;;;;;;19.95;10.20;;;;;;;;;;5012226;28;20033;-64
2021/12/06 04:25:15;;;;;;;19.08;11.27;;;;;;;;;;5012441;28;20033;-59
2021/12/06 04:27:41;;;;;;;17.83;9.88;;;;;;;;;;5011829;28;20484;-61
2021/12/06 04:30:09;;;;;;;15.95;9.20;;;;;;;;;;5012314;28;20026;-64
2021/12/06 04:32:35;;;;;;;20.35;10.30;;;;;;;;;;5007406;28;20086;-61
2021/12/06 04:35:01;;;;;;;18.05;8.73;;;;;;;;;;4992744;28;20058;-65
2021/12/06 04:37:26;;;;;;;17.10;9.48;;;;;;;;;;4992412;28;20038;-62
2021/12/06 04:39:52;;;;;;;17.55;9.48;;;;;;;;;;4992491;28;20022;-61
2021/12/06 04:42:21;;;;;;;17.75;9.70;;;;;;;;;;4995552;28;20033;-61
2021/12/06 04:44:48;;;;;;;25.58;13.13;;;;;;;;;;4996040;28;20508;-64
2021/12/06 04:47:14;;;;;;;16.65;9.00;;;;;;;;;;4995850;28;20102;-63
2021/12/06 04:49:40;;;;;;;18.55;8.77;;;;;;;;;;4995700;28;20054;-63
2021/12/06 04:52:11;;;;;;;22.02;10.52;;;;;;;;;;4995673;28;20030;-65
2021/12/06 04:54:42;;;;;;;17.63;9.77;;;;;;;;;;4995689;28;20053;-64
2021/12/06 04:57:13;;;;;;;19.23;9.98;;;;;;;;;;4999782;28;20055;-64
2021/12/06 04:59:47;;;;;;;18.30;9.43;;;;;;;;;;4995720;28;20046;-61
2021/12/06 05:02:23;;;;;;;20.42;9.10;;;;;;;;;;4995678;28;20041;-55
2021/12/06 05:04:52;;;;;;;15.25;8.43;;;;;;;;;;4995589;28;20023;-61
2021/12/06 05:07:32;;;;;;;15.65;8.90;;;;;;;;;;4995482;28;20023;-58
2021/12/06 05:09:58;;;;;;;14.35;7.90;;;;;;;;;;5008477;28;20033;-61
2021/12/06 05:12:27;;;;;;;17.88;8.00;;;;;;;;;;5005090;28;20045;-59
2021/12/06 05:14:54;;;;;;;15.40;8.45;;;;;;;;;;5014832;28;20050;-64
2021/12/06 05:17:20;;;;;;;16.30;8.40;;;;;;;;;;5005278;28;20062;-58
2021/12/06 05:19:46;;;;;;;15.52;7.88;;;;;;;;;;4995053;28;20084;-64
2021/12/06 05:22:12;;;;;;;16.60;8.05;;;;;;;;;;4995291;28;20023;-59
2021/12/06 05:24:38;;;;;;;17.52;7.93;;;;;;;;;;4994873;28;20073;-57
2021/12/06 05:27:05;;;;;;;16.13;9.00;;;;;;;;;;4995096;28;20035;-61
2021/12/06 05:29:32;;;;;;;18.50;9.48;;;;;;;;;;4995309;28;20038;-58
2021/12/06 05:31:59;;;;;;;18.90;9.23;;;;;;;;;;4994918;28;20026;-61
2021/12/06 05:34:38;;;;;;;19.17;9.02;;;;;;;;;;4994643;28;20105;-58
2021/12/06 05:37:11;;;;;;;17.30;8.45;;;;;;;;;;5010265;28;20431;-59
2021/12/06 05:39:37;;;;;;;15.88;8.50;;;;;;;;;;5014267;28;20084;-60
2021/12/06 05:42:10;;;;;;;17.50;9.05;;;;;;;;;;5014517;28;20481;-58
2021/12/06 05:44:36;;;;;;;18.20;8.20;;;;;;;;;;5013895;28;20393;-57
2021/12/06 05:47:03;;;;;;;22.05;10.40;;;;;;;;;;5014285;28;20034;-59
2021/12/06 05:49:29;;;;;;;20.55;9.00;;;;;;;;;;4994730;28;20046;-61
2021/12/06 05:51:55;;;;;;;17.55;8.77;;;;;;;;;;5009370;28;20076;-58
2021/12/06 05:54:22;;;;;;;16.42;9.40;;;;;;;;;;5013768;28;20084;-62
2021/12/06 05:56:48;;;;;;;18.95;9.00;;;;;;;;;;5013947;28;20548;-65
2021/12/06 05:59:14;;;;;;;16.83;9.00;;;;;;;;;;5014135;28;20034;-63
2021/12/06 06:01:40;;;;;;;17.52;8.85;;;;;;;;;;5014164;28;20069;-64
2021/12/06 06:04:06;;;;;;;17.05;8.98;;;;;;;;;;5014105;28;20076;-65
2021/12/06 06:06:34;;;;;;;13.63;8.02;;;;;;;;;;5013770;28;20030;-64
2021/12/06 06:09:02;;;;;;;15.60;8.02;;;;;;;;;;5013783;28;20044;-65
2021/12/06 06:11:28;;;;;;;15.48;8.55;;;;;;;;;;5014046;28;20381;-65
2021/12/06 06:13:54;;;;;;;12.50;7.18;;;;;;;;;;5013340;28;20062;-63
2021/12/06 06:16:22;;;;;;;14.93;8.48;;;;;;;;;;5013391;28;20028;-64
2021/12/06 06:18:49;;;;;;;16.13;8.57;;;;;;;;;;4994688;28;20063;-57
2021/12/06 06:21:16;;;;;;;14.73;8.05;;;;;;;;;;4976569;28;20077;-62
2021/12/06 06:23:42;;;;;;;15.95;8.95;;;;;;;;;;4993821;28;20029;-64
2021/12/06 06:26:08;;;;;;;16.75;8.30;;;;;;;;;;5006492;28;20113;-64
2021/12/06 06:28:33;;;;;;;17.55;8.98;;;;;;;;;;4993984;28;20105;-64
2021/12/06 06:30:59;;;;;;;16.75;9.25;;;;;;;;;;4994071;28;20030;-64
2021/12/06 06:33:24;;;;;;;16.25;8.45;;;;;;;;;;4993729;28;20045;-62
2021/12/06 06:35:50;;;;;;;18.80;9.00;;;;;;;;;;4993998;28;20153;-64
2021/12/06 06:38:17;;;;;;;21.13;10.05;;;;;;;;;;4993396;28;20030;-61
2021/12/06 06:40:43;;;;;;;28.33;11.50;;;;;;;;;;4993687;28;20034;-63
2021/12/06 06:43:09;;;;;;;28.25;11.13;;;;;;;;;;4993752;28;20063;-64
2021/12/06 06:45:35;;;;;;;20.88;10.68;;;;;;;;;;4993837;28;20026;-63
2021/12/06 06:48:01;;;;;;;22.58;9.93;;;;;;;;;;4993272;28;20027;-64
2021/12/06 06:50:26;;;;;;;17.58;9.50;;;;;;;;;;5005745;28;20030;-63
2021/12/06 06:52:52;;;;;;;20.23;10.70;;;;;;;;;;5012898;28;20018;-62
2021/12/06 06:55:19;;;;;;;23.95;10.55;;;;;;;;;;5012400;28;20040;-63
2021/12/06 06:57:45;;;;;;;27.58;12.20;;;;;;;;;;4998008;28;20041;-61
2021/12/06 07:00:17;;;;;;;25.67;11.85;;;;;;;;;;4993387;28;20466;-60
2021/12/06 07:02:43;;;;;;;21.88;10.88;;;;;;;;;;4993605;28;20041;-63
2021/12/06 07:05:09;;;;;;;24.60;10.73;;;;;;;;;;5005721;28;20018;-62
2021/12/06 07:07:35;;;;;;;25.85;10.48;;;;;;;;;;4993035;28;20034;-65
2021/12/06 07:10:01;;;;;;;19.33;8.98;;;;;;;;;;5006818;28;20034;-63
2021/12/06 07:12:27;;;;;;;15.95;8.52;;;;;;;;;;4993737;28;20053;-63
2021/12/06 07:14:53;;;;;;;13.35;7.90;;;;;;;;;;4993767;28;20026;-63
2021/12/06 07:17:19;;;;;;;13.57;7.63;;;;;;;;;;5002173;28;20088;-64
2021/12/06 07:19:44;;;;;;;19.42;8.52;;;;;;;;;;5007290;28;20025;-60
2021/12/06 07:22:11;;;;;;;19.52;9.18;;;;;;;;;;4993204;28;20034;-60
2021/12/06 07:24:37;;;;;;;23.00;10.70;;;;;;;;;;4978729;28;20066;-59
2021/12/06 07:27:03;;;;;;;19.58;10.10;;;;;;;;;;5004170;28;20497;-60
2021/12/06 07:29:33;;;;;;;19.90;9.40;;;;;;;;;;5012175;28;20018;-59
2021/12/06 07:31:59;;;;;;;18.92;8.73;;;;;;;;;;5002513;28;20026;-63
2021/12/06 07:34:25;;;;;;;31.17;14.18;;;;;;;;;;4995720;28;20026;-60
2021/12/06 07:36:50;;;;;;;27.90;11.85;;;;;;;;;;5002615;28;20033;-60
2021/12/06 07:39:16;;;;;;;25.58;13.13;;;;;;;;;;4992762;28;20035;-59
2021/12/06 07:41:42;;;;;;;29.13;16.05;;;;;;;;;;5001008;28;20026;-59
2021/12/06 07:44:08;;;;;;;29.73;14.65;;;;;;;;;;5009433;28;20034;-60
2021/12/06 07:46:34;;;;;;;38.63;14.98;;;;;;;;;;4993835;28;20038;-58
2021/12/06 07:48:59;;;;;;;23.52;11.70;;;;;;;;;;4996099;28;20078;-58
2021/12/06 07:51:27;;;;;;;17.10;9.57;;;;;;;;;;4993017;28;20034;-65
2021/12/06 07:53:53;;;;;;;17.73;9.43;;;;;;;;;;4992670;28;20026;-65
2021/12/06 07:56:19;;;;;;;20.75;10.05;;;;;;;;;;4995296;28;20081;-61
2021/12/06 07:58:45;;;;;;;17.25;9.40;;;;;;;;;;5000619;28;20504;-65
2021/12/06 08:01:11;;;;;;;19.05;8.95;;;;;;;;;;4994949;28;20042;-63
2021/12/06 08:03:41;;;;;;;21.17;9.52;;;;;;;;;;4999202;28;20493;-62
2021/12/06 08:06:08;;;;;;;18.83;9.27;;;;;;;;;;4992770;28;20034;-59
2021/12/06 08:08:35;;;;;;;18.25;9.70;;;;;;;;;;4992314;28;20026;-62
2021/12/06 08:11:06;;;;;;;17.90;9.88;;;;;;;;;;4999222;28;20027;-65
2021/12/06 08:13:33;;;;;;;16.70;10.20;;;;;;;;;;5004107;28;20374;-64
2021/12/06 08:16:02;;;;;;;21.63;11.52;;;;;;;;;;5012675;28;20030;-65
2021/12/06 08:18:28;;;;;;;19.85;9.98;;;;;;;;;;5005974;28;20118;-64
2021/12/06 08:20:56;;;;;;;19.00;10.18;;;;;;;;;;5003569;28;20034;-63
2021/12/06 08:23:23;;;;;;;22.27;11.23;;;;;;;;;;4996103;28;20066;-64
2021/12/06 08:25:50;;;;;;;20.92;11.82;;;;;;;;;;4999753;28;20026;-62
2021/12/06 08:28:17;;;;;;;24.58;12.43;;;;;;;;;;5006696;28;20386;-65
2021/12/06 08:30:43;;;;;;;30.15;15.20;;;;;;;;;;4996541;28;20054;-64
2021/12/06 08:33:09;;;;;;;30.48;15.32;;;;;;;;;;4995602;28;20027;-64
2021/12/06 08:35:39;;;;;;;23.50;12.95;;;;;;;;;;4998874;28;20030;-64
2021/12/06 08:38:07;;;;;;;30.95;14.73;;;;;;;;;;4997960;28;20477;-65
2021/12/06 08:40:33;;;;;;;23.77;13.98;;;;;;;;;;5004702;28;20053;-61
2021/12/06 08:42:58;;;;;;;21.02;11.57;;;;;;;;;;5015144;28;20037;-61
2021/12/06 08:45:26;;;;;;;21.20;10.70;;;;;;;;;;5005432;28;20038;-60
2021/12/06 08:47:53;;;;;;;21.52;9.35;;;;;;;;;;4996743;28;20029;-61
2021/12/06 08:50:22;;;;;;;25.30;11.05;;;;;;;;;;5013322;28;20042;-61
2021/12/06 08:52:49;;;;;;;26.75;13.13;;;;;;;;;;5004622;28;20069;-60
2021/12/06 08:55:15;;;;;;;31.05;14.75;;;;;;;;;;4980971;28;20045;-62
2021/12/06 08:57:41;;;;;;;31.25;15.02;;;;;;;;;;5014766;28;20083;-63
2021/12/06 09:00:10;;;;;;;36.30;16.02;;;;;;;;;;5014162;28;20049;-64
2021/12/06 09:02:36;;;;;;;38.97;17.13;;;;;;;;;;5014364;28;20029;-62
2021/12/06 09:05:03;;;;;;;34.70;16.88;;;;;;;;;;5014814;28;20528;-63
2021/12/06 09:07:29;;;;;;;37.75;16.23;;;;;;;;;;5014562;28;20030;-68
2021/12/06 09:09:56;;;;;;;32.70;16.02;;;;;;;;;;5014698;28;20140;-65
2021/12/06 09:12:26;;;;;;;37.47;15.65;;;;;;;;;;5014279;28;20030;-61
2021/12/06 09:14:53;;;;;;;33.78;15.23;;;;;;;;;;5014736;28;20028;-62
2021/12/06 09:17:20;;;;;;;37.38;17.27;;;;;;;;;;5014027;28;20034;-64
2021/12/06 09:19:45;;;;;;;34.85;15.63;;;;;;;;;;5011065;28;20034;-58
2021/12/06 09:22:11;;;;;;;34.90;15.95;;;;;;;;;;5014342;28;20038;-58
2021/12/06 09:24:37;;;;;;;32.20;14.63;;;;;;;;;;5008015;28;20045;-60
2021/12/06 09:27:03;;;;;;;31.83;15.25;;;;;;;;;;5013106;28;20034;-60
2021/12/06 09:29:29;;;;;;;29.58;14.15;;;;;;;;;;5006403;28;20045;-63
2021/12/06 09:31:59;;;;;;;29.10;13.35;;;;;;;;;;5004154;28;20041;-66
2021/12/06 09:34:28;;;;;;;31.27;15.52;;;;;;;;;;5010852;28;20036;-60
2021/12/06 09:36:55;;;;;;;26.40;14.57;;;;;;;;;;5007137;28;20045;-63
2021/12/06 09:39:21;;;;;;;28.10;15.15;;;;;;;;;;5013848;28;20036;-59
2021/12/06 09:41:47;;;;;;;28.58;13.45;;;;;;;;;;5012139;28;20084;-58
2021/12/06 09:44:13;;;;;;;27.80;12.77;;;;;;;;;;5007421;28;20029;-61
2021/12/06 09:46:39;;;;;;;28.67;11.88;;;;;;;;;;5005931;28;20037;-66
2021/12/06 09:49:09;;;;;;;27.42;12.88;;;;;;;;;;5013804;28;20539;-60
2021/12/06 09:51:37;;;;;;;29.55;13.40;;;;;;;;;;5014052;28;20452;-60
2021/12/06 09:54:03;;;;;;;34.83;13.98;;;;;;;;;;5011980;28;20057;-66
2021/12/06 09:56:33;;;;;;;27.90;13.60;;;;;;;;;;5005118;28;20105;-63
2021/12/06 09:59:01;;;;;;;28.05;13.68;;;;;;;;;;5007251;28;20651;-66
2021/12/06 10:01:32;;;;;;;30.73;13.82;;;;;;;;;;5004889;28;20485;-64
2021/12/06 10:03:59;;;;;;;27.33;13.50;;;;;;;;;;5006234;28;20065;-66
2021/12/06 10:06:28;;;;;;;24.45;12.93;;;;;;;;;;5013408;28;20417;-66
2021/12/06 10:08:55;;;;;;;32.60;14.10;;;;;;;;;;5013029;28;20113;-65
2021/12/06 10:11:23;;;;;;;92.47;31.90;;;;;;;;;;5006135;28;20065;-65
2021/12/06 10:13:49;;;;;;;31.33;15.95;;;;;;;;;;5003993;28;20034;-66
2021/12/06 10:16:15;;;;;;;38.50;19.10;;;;;;;;;;5012974;28;20436;-64
2021/12/06 10:18:42;;;;;;;86.32;34.47;;;;;;;;;;5013618;28;20030;-66
2021/12/06 10:21:09;;;;;;;29.63;12.75;;;;;;;;;;5013577;28;20057;-65
2021/12/06 10:23:37;;;;;;;24.27;11.52;;;;;;;;;;5008346;28;20028;-66
2021/12/06 10:26:09;;;;;;;25.02;12.18;;;;;;;;;;5009095;28;20585;-64
2021/12/06 10:28:35;;;;;;;39.17;18.02;;;;;;;;;;5008501;28;20030;-65
2021/12/06 10:31:05;;;;;;;33.53;17.35;;;;;;;;;;5001482;28;20026;-66
2021/12/06 10:33:34;;;;;;;31.40;17.90;;;;;;;;;;5013102;28;20374;-65
2021/12/06 10:36:03;;;;;;;26.13;14.23;;;;;;;;;;5012926;28;20033;-65
2021/12/06 10:38:33;;;;;;;24.63;13.57;;;;;;;;;;5011503;28;20167;-66
2021/12/06 10:41:06;;;;;;;29.20;14.57;;;;;;;;;;5009992;28;20025;-64
2021/12/06 10:43:33;;;;;;;22.13;10.80;;;;;;;;;;5003616;28;20123;-67
2021/12/06 10:45:59;;;;;;;15.98;8.15;;;;;;;;;;5001292;28;20588;-65
2021/12/06 10:48:26;;;;;;;16.77;9.20;;;;;;;;;;5007809;28;20046;-66
2021/12/06 10:50:52;;;;;;;17.23;9.32;;;;;;;;;;5013149;28;20033;-66
2021/12/06 10:53:28;;;;;;;14.65;7.60;;;;;;;;;;4997720;28;20026;-67
2021/12/06 10:55:57;;;;;;;16.27;6.63;;;;;;;;;;5002829;28;20100;-67
2021/12/06 10:58:27;;;;;;;12.10;6.97;;;;;;;;;;4993440;28;20480;-62
2021/12/06 11:00:52;;;;;;;15.02;8.48;;;;;;;;;;4994932;28;20061;-65
2021/12/06 11:03:47;;;;;;;11.77;7.55;;;;;;;;;;5009502;28;20449;-65
2021/12/06 11:06:18;;;;;;;14.50;8.02;;;;;;;;;;5012565;28;20030;-60
2021/12/06 11:08:45;;;;;;;14.48;8.63;;;;;;;;;;4999618;28;20030;-59
2021/12/06 11:11:15;;;;;;;12.50;7.47;;;;;;;;;;5009355;28;20022;-64
2021/12/06 11:13:50;;;;;;;12.30;6.57;;;;;;;;;;5011848;28;20080;-61
2021/12/06 11:16:25;;;;;;;12.15;6.60;;;;;;;;;;5012502;28;20034;-59
2021/12/06 11:18:55;;;;;;;14.13;7.05;;;;;;;;;;5010120;28;20021;-61
2021/12/06 11:21:28;;;;;;;10.52;6.05;;;;;;;;;;5008899;28;20035;-60
2021/12/06 11:24:17;;;;;;;8.60;5.28;;;;;;;;;;4999179;28;20052;-63
2021/12/06 11:26:44;;;;;;;10.05;4.68;;;;;;;;;;4956128;28;20478;-61
2021/12/06 11:29:16;;;;;;;9.27;5.00;;;;;;;;;;4950305;28;20047;-64
2021/12/06 11:31:48;;;;;;;7.65;4.80;;;;;;;;;;4953249;28;20055;-62
2021/12/06 11:34:14;;;;;;;8.68;5.55;;;;;;;;;;4953033;28;20067;-63
2021/12/06 11:36:41;;;;;;;11.45;4.88;;;;;;;;;;4951894;28;20119;-64
2021/12/06 11:39:15;;;;;;;8.35;4.97;;;;;;;;;;4951676;29;20030;-63
2021/12/06 11:41:43;;;;;;;8.60;4.38;;;;;;;;;;4955320;28;20031;-64
2021/12/06 11:44:49;;;;;;;9.93;5.00;;;;;;;;;;4960386;28;20043;-62
2021/12/06 11:47:17;;;;;;;11.18;5.30;;;;;;;;;;4885119;29;20044;-60
2021/12/06 11:49:49;;;;;;;8.82;5.22;;;;;;;;;;4883003;29;20048;-59
2021/12/06 11:52:20;;;;;;;10.05;5.38;;;;;;;;;;4888976;29;20484;-60
2021/12/06 11:54:58;;;;;;;8.20;4.97;;;;;;;;;;4896391;29;20124;-65
2021/12/06 11:57:28;;;;;;;9.40;5.47;;;;;;;;;;4897787;29;20084;-65
2021/12/06 11:59:57;;;;;;;8.47;5.67;;;;;;;;;;4884554;29;20421;-64
2021/12/06 12:02:39;;;;;;;16.08;9.18;;;;;;;;;;4892288;29;20417;-66
2021/12/06 12:05:26;;;;;;;16.27;8.13;;;;;;;;;;4913772;29;20154;-65
2021/12/06 12:07:57;;;;;;;9.40;5.07;;;;;;;;;;4911540;29;20111;-65
2021/12/06 12:10:33;;;;;;;8.77;4.70;;;;;;;;;;4901824;29;20116;-63
2021/12/06 12:12:59;;;;;;;9.60;5.10;;;;;;;;;;4899789;29;20239;-65
2021/12/06 12:15:25;;;;;;;9.05;4.65;;;;;;;;;;4910384;29;20133;-63
2021/12/06 12:17:51;;;;;;;7.70;4.93;;;;;;;;;;4901506;29;20038;-65
2021/12/06 12:20:22;;;;;;;7.25;4.53;;;;;;;;;;4905216;29;20492;-76
2021/12/06 12:22:50;;;;;;;8.93;4.53;;;;;;;;;;4954975;28;20058;-64
2021/12/06 12:25:24;;;;;;;12.18;5.65;;;;;;;;;;4995814;28;20028;-66
2021/12/06 12:30:31;;;;;;;8.43;5.22;;;;;;;;;;5015711;28;20030;-65
2021/12/06 12:32:57;;;;;;;7.78;4.55;;;;;;;;;;5007108;28;22037;-63
2021/12/06 12:35:41;;;;;;;9.27;5.35;;;;;;;;;;5015341;28;20030;-62
2021/12/06 12:38:09;;;;;;;10.88;5.03;;;;;;;;;;5012884;28;20037;-65
2021/12/06 12:40:47;;;;;;;9.55;5.55;;;;;;;;;;5007615;28;20034;-66
2021/12/06 12:43:16;;;;;;;11.18;5.55;;;;;;;;;;5011437;28;20033;-66
2021/12/06 12:45:44;;;;;;;9.95;5.53;;;;;;;;;;4996660;28;20023;-64
2021/12/06 12:48:11;;;;;;;13.35;6.72;;;;;;;;;;4982312;28;20137;-66
2021/12/06 12:50:37;;;;;;;13.00;7.18;;;;;;;;;;4995506;28;20038;-65
2021/12/06 12:53:14;;;;;;;10.07;5.65;;;;;;;;;;4998763;28;20503;-59
2021/12/06 12:55:48;;;;;;;12.18;5.85;;;;;;;;;;4995547;28;20109;-65
2021/12/06 12:58:20;;;;;;;9.88;5.65;;;;;;;;;;4995491;28;20113;-64
2021/12/06 13:01:08;;;;;;;8.98;5.40;;;;;;;;;;5007713;28;20627;-64
2021/12/06 13:03:49;;;;;;;15.52;7.50;;;;;;;;;;4997708;28;20130;-65
2021/12/06 13:06:15;;;;;;;13.30;6.25;;;;;;;;;;5009573;28;20034;-65
2021/12/06 13:08:41;;;;;;;13.80;6.88;;;;;;;;;;5013680;28;20543;-65
2021/12/06 13:11:06;;;;;;;16.08;6.88;;;;;;;;;;5009926;28;20408;-64
2021/12/06 13:13:41;;;;;;;13.30;6.45;;;;;;;;;;5006869;28;20058;-65
2021/12/06 13:16:34;;;;;;;16.48;7.38;;;;;;;;;;5007939;28;20501;-65
2021/12/06 13:21:40;;;;;;;24.35;9.90;;;;;;;;;;5011560;28;20416;-64
2021/12/06 13:24:31;;;;;;;31.08;11.25;;;;;;;;;;5013807;28;20026;-60
2021/12/06 13:27:03;;;;;;;33.90;11.10;;;;;;;;;;5000298;28;20032;-65
2021/12/06 13:29:42;;;;;;;21.17;8.82;;;;;;;;;;5003347;28;20042;-64
2021/12/06 13:32:28;;;;;;;19.20;8.75;;;;;;;;;;5010891;28;20100;-66
2021/12/06 13:35:13;;;;;;;22.73;9.30;;;;;;;;;;5014586;28;20034;-66
2021/12/06 13:37:39;;;;;;;25.00;10.63;;;;;;;;;;5014053;28;20022;-60
2021/12/06 13:40:16;;;;;;;39.63;14.48;;;;;;;;;;5002860;28;20089;-66
2021/12/06 13:42:43;;;;;;;27.38;12.20;;;;;;;;;;5003251;28;20255;-65
2021/12/06 13:45:21;;;;;;;32.05;13.75;;;;;;;;;;5007586;28;20053;-65
2021/12/06 13:47:48;;;;;;;21.27;11.73;;;;;;;;;;5013721;28;20041;-66
2021/12/06 13:50:17;;;;;;;20.40;9.43;;;;;;;;;;5001067;28;20049;-64
2021/12/06 13:52:53;;;;;;;17.13;9.27;;;;;;;;;;5013243;28;20061;-63
2021/12/06 13:55:27;;;;;;;21.17;10.73;;;;;;;;;;5005601;28;20112;-63
2021/12/06 13:58:00;;;;;;;19.73;10.75;;;;;;;;;;5010470;28;20034;-60
2021/12/06 14:00:30;;;;;;;20.73;11.40;;;;;;;;;;5009984;28;20061;-65
2021/12/06 14:02:59;;;;;;;24.38;13.85;;;;;;;;;;4995007;28;20104;-62
2021/12/06 14:05:27;;;;;;;24.00;11.77;;;;;;;;;;4999938;28;20030;-65
2021/12/06 14:07:53;;;;;;;22.33;12.07;;;;;;;;;;4993596;28;20023;-64
2021/12/06 14:10:20;;;;;;;20.55;9.77;;;;;;;;;;4994189;28;20401;-60
2021/12/06 14:12:46;;;;;;;23.27;10.95;;;;;;;;;;4996779;28;20030;-64
2021/12/06 14:15:31;;;;;;;21.30;10.27;;;;;;;;;;4996752;28;20038;-64
2021/12/06 14:17:59;;;;;;;25.15;12.40;;;;;;;;;;5004456;28;20556;-64
2021/12/06 14:20:25;;;;;;;21.45;10.50;;;;;;;;;;4996450;28;20042;-65
2021/12/06 14:22:51;;;;;;;17.58;9.52;;;;;;;;;;4994016;28;20023;-65
2021/12/06 14:25:17;;;;;;;21.80;10.07;;;;;;;;;;4990484;28;20473;-64
2021/12/06 14:27:44;;;;;;;18.65;9.57;;;;;;;;;;4998780;28;20026;-63
2021/12/06 14:30:19;;;;;;;21.55;10.27;;;;;;;;;;5010365;28;20485;-66
2021/12/06 14:32:51;;;;;;;21.25;11.05;;;;;;;;;;4998694;28;20026;-62
2021/12/06 14:35:19;;;;;;;19.35;10.25;;;;;;;;;;5006654;28;20094;-66
2021/12/06 14:37:44;;;;;;;15.82;8.23;;;;;;;;;;5008581;28;20449;-65
2021/12/06 14:40:11;;;;;;;15.68;8.73;;;;;;;;;;4998926;28;20098;-64
2021/12/06 14:42:39;;;;;;;20.42;9.77;;;;;;;;;;4997626;28;20030;-63
2021/12/06 14:45:07;;;;;;;18.23;8.38;;;;;;;;;;5012956;28;20042;-65
2021/12/06 14:47:44;;;;;;;19.48;9.93;;;;;;;;;;5011146;28;20068;-63
2021/12/06 14:50:24;;;;;;;23.20;9.98;;;;;;;;;;4996223;28;20042;-63
2021/12/06 14:52:51;;;;;;;20.60;10.25;;;;;;;;;;5008610;28;20037;-66